sensor_id;sensor_type;location;lat;lon;timestamp;pressure;altitude;pressure_sealevel;temperature;humidity
24280;BME280;12395;42.808;23.408;2023-03-21T00:00:37;94743.22;;;12.69;45.65
24280;BME280;12395;42.808;23.408;2023-03-21T00:03:02;94742.19;;;12.70;45.63
24280;BME280;12395;42.808;23.408;2023-03-21T00:05:27;94737.69;;;12.71;45.30
24280;BME280;12395;42.808;23.408;2023-03-21T00:07:53;94733.19;;;12.71;45.52
24280;BME280;12395;42.808;23.408;2023-03-21T00:10:18;94728.69;;;12.72;45.71
24280;BME280;12395;42.808;23.408;2023-03-21T00:12:43;94723.81;;;12.69;46.10
24280;BME280;12395;42.808;23.408;2023-03-21T00:15:09;94722.63;;;12.65;46.01
24280;BME280;12395;42.808;23.408;2023-03-21T00:17:35;94724.72;;;12.63;46.02
24280;BME280;12395;42.808;23.408;2023-03-21T00:20:04;94716.97;;;12.61;46.02
24280;BME280;12395;42.808;23.408;2023-03-21T00:22:29;94731.03;;;12.62;45.98
24280;BME280;12395;42.808;23.408;2023-03-21T00:24:55;94731.50;;;12.59;47.81
24280;BME280;12395;42.808;23.408;2023-03-21T00:27:20;94732.19;;;12.36;48.94
24280;BME280;12395;42.808;23.408;2023-03-21T00:29:45;94743.09;;;11.92;49.81
24280;BME280;12395;42.808;23.408;2023-03-21T00:32:13;94733.00;;;11.51;50.43
24280;BME280;12395;42.808;23.408;2023-03-21T00:34:38;94736.91;;;11.24;51.36
24280;BME280;12395;42.808;23.408;2023-03-21T00:37:03;94732.19;;;11.01;52.69
24280;BME280;12395;42.808;23.408;2023-03-21T00:39:31;94736.09;;;10.92;53.19
24280;BME280;12395;42.808;23.408;2023-03-21T00:41:56;94735.09;;;10.86;53.79
24280;BME280;12395;42.808;23.408;2023-03-21T00:44:21;94730.31;;;10.70;54.61
24280;BME280;12395;42.808;23.408;2023-03-21T00:46:48;94738.16;;;10.46;54.63
24280;BME280;12395;42.808;23.408;2023-03-21T00:49:13;94730.91;;;10.35;55.02
24280;BME280;12395;42.808;23.408;2023-03-21T00:51:38;94726.81;;;10.32;55.42
24280;BME280;12395;42.808;23.408;2023-03-21T00:54:03;94724.59;;;10.29;56.05
24280;BME280;12395;42.808;23.408;2023-03-21T00:56:30;94714.63;;;10.25;56.90
24280;BME280;12395;42.808;23.408;2023-03-21T00:58:55;94714.03;;;10.16;57.57
24280;BME280;12395;42.808;23.408;2023-03-21T01:01:20;94706.09;;;10.03;57.66
24280;BME280;12395;42.808;23.408;2023-03-21T01:03:46;94710.63;;;9.96;56.23
24280;BME280;12395;42.808;23.408;2023-03-21T01:06:28;94716.16;;;9.81;56.33
24280;BME280;12395;42.808;23.408;2023-03-21T01:08:54;94718.41;;;9.71;56.47
24280;BME280;12395;42.808;23.408;2023-03-21T01:11:23;94713.72;;;9.67;55.75
24280;BME280;12395;42.808;23.408;2023-03-21T01:13:49;94718.41;;;9.65;55.69
24280;BME280;12395;42.808;23.408;2023-03-21T01:16:15;94716.41;;;9.54;56.63
24280;BME280;12395;42.808;23.408;2023-03-21T01:18:40;94713.13;;;9.52;57.21
24280;BME280;12395;42.808;23.408;2023-03-21T01:21:08;94712.13;;;9.53;57.59
24280;BME280;12395;42.808;23.408;2023-03-21T01:23:33;94706.03;;;9.52;57.70
24280;BME280;12395;42.808;23.408;2023-03-21T01:25:59;94709.09;;;9.43;58.08
24280;BME280;12395;42.808;23.408;2023-03-21T01:28:25;94703.22;;;9.41;58.96
24280;BME280;12395;42.808;23.408;2023-03-21T01:30:50;94702.59;;;9.39;59.33
24280;BME280;12395;42.808;23.408;2023-03-21T01:33:16;94703.59;;;9.24;59.42
24280;BME280;12395;42.808;23.408;2023-03-21T01:35:42;94701.78;;;9.25;59.18
24280;BME280;12395;42.808;23.408;2023-03-21T01:38:07;94705.44;;;9.17;59.29
24280;BME280;12395;42.808;23.408;2023-03-21T01:40:34;94696.09;;;9.21;59.36
24280;BME280;12395;42.808;23.408;2023-03-21T01:43:00;94704.63;;;9.17;59.38
24280;BME280;12395;42.808;23.408;2023-03-21T01:48:10;94696.28;;;9.13;59.95
24280;BME280;12395;42.808;23.408;2023-03-21T01:50:35;94696.50;;;9.12;59.67
24280;BME280;12395;42.808;23.408;2023-03-21T01:53:01;94696.72;;;9.17;60.00
24280;BME280;12395;42.808;23.408;2023-03-21T01:55:28;94697.72;;;9.09;59.49
24280;BME280;12395;42.808;23.408;2023-03-21T01:57:53;94699.97;;;9.06;60.16
24280;BME280;12395;42.808;23.408;2023-03-21T02:00:20;94695.88;;;9.03;61.20
24280;BME280;12395;42.808;23.408;2023-03-21T02:02:49;94696.72;;;9.04;61.34
24280;BME280;12395;42.808;23.408;2023-03-21T02:05:25;94700.56;;;9.01;60.76
24280;BME280;12395;42.808;23.408;2023-03-21T02:07:53;94700.56;;;9.08;60.36
24280;BME280;12395;42.808;23.408;2023-03-21T02:10:19;94696.88;;;9.09;60.06
24280;BME280;12395;42.808;23.408;2023-03-21T02:12:45;94703.41;;;9.06;60.80
24280;BME280;12395;42.808;23.408;2023-03-21T02:15:10;94696.72;;;9.04;61.72
24280;BME280;12395;42.808;23.408;2023-03-21T02:25:23;94691.78;;;8.81;62.98
24280;BME280;12395;42.808;23.408;2023-03-21T02:27:56;94695.44;;;8.67;62.84
24280;BME280;12395;42.808;23.408;2023-03-21T02:30:47;94687.28;;;8.62;63.38
24280;BME280;12395;42.808;23.408;2023-03-21T02:33:15;94673.91;;;8.70;63.46
24280;BME280;12395;42.808;23.408;2023-03-21T02:41:15;94690.13;;;8.54;62.85
24280;BME280;12395;42.808;23.408;2023-03-21T02:43:43;94683.03;;;8.54;62.19
24280;BME280;12395;42.808;23.408;2023-03-21T02:46:30;94685.88;;;8.53;61.75
24280;BME280;12395;42.808;23.408;2023-03-21T02:51:29;94687.69;;;8.46;63.46
24280;BME280;12395;42.808;23.408;2023-03-21T02:53:57;94681.59;;;8.52;63.68
24280;BME280;12395;42.808;23.408;2023-03-21T02:56:23;94678.16;;;8.58;63.40
24280;BME280;12395;42.808;23.408;2023-03-21T02:58:50;94681.00;;;8.57;63.42
24280;BME280;12395;42.808;23.408;2023-03-21T03:01:16;94677.75;;;8.54;62.78
24280;BME280;12395;42.808;23.408;2023-03-21T03:03:41;94679.56;;;8.54;63.53
24280;BME280;12395;42.808;23.408;2023-03-21T03:06:12;94672.25;;;8.49;63.33
24280;BME280;12395;42.808;23.408;2023-03-21T03:11:25;94680.94;;;8.37;63.84
24280;BME280;12395;42.808;23.408;2023-03-21T03:16:45;94676.47;;;8.31;65.75
24280;BME280;12395;42.808;23.408;2023-03-21T03:19:14;94678.00;;;8.12;66.17
24280;BME280;12395;42.808;23.408;2023-03-21T03:21:43;94683.41;;;7.98;65.99
24280;BME280;12395;42.808;23.408;2023-03-21T03:24:23;94678.34;;;7.96;66.12
24280;BME280;12395;42.808;23.408;2023-03-21T03:26:55;94678.91;;;7.92;65.53
24280;BME280;12395;42.808;23.408;2023-03-21T03:29:21;94677.69;;;7.88;66.15
24280;BME280;12395;42.808;23.408;2023-03-21T03:31:49;94694.50;;;7.80;67.81
24280;BME280;12395;42.808;23.408;2023-03-21T03:34:21;94690.19;;;7.72;67.85
24280;BME280;12395;42.808;23.408;2023-03-21T03:36:49;94693.63;;;7.66;68.08
24280;BME280;12395;42.808;23.408;2023-03-21T03:39:20;94694.16;;;7.55;68.66
24280;BME280;12395;42.808;23.408;2023-03-21T03:42:00;94696.16;;;7.53;69.25
24280;BME280;12395;42.808;23.408;2023-03-21T03:44:27;94689.47;;;7.51;68.79
24280;BME280;12395;42.808;23.408;2023-03-21T03:49:20;94691.84;;;7.39;68.67
24280;BME280;12395;42.808;23.408;2023-03-21T03:54:18;94690.66;;;7.21;69.43
24280;BME280;12395;42.808;23.408;2023-03-21T03:56:44;94688.47;;;7.24;68.93
24280;BME280;12395;42.808;23.408;2023-03-21T03:59:10;94679.19;;;7.28;68.25
24280;BME280;12395;42.808;23.408;2023-03-21T04:01:36;94674.38;;;7.38;68.24
24280;BME280;12395;42.808;23.408;2023-03-21T04:04:01;94683.34;;;7.44;67.24
24280;BME280;12395;42.808;23.408;2023-03-21T04:06:26;94686.56;;;7.39;69.31
24280;BME280;12395;42.808;23.408;2023-03-21T04:08:53;94693.75;;;7.24;70.68
24280;BME280;12395;42.808;23.408;2023-03-21T04:11:18;94689.25;;;7.18;70.47
24280;BME280;12395;42.808;23.408;2023-03-21T04:13:44;94687.16;;;7.07;71.72
24280;BME280;12395;42.808;23.408;2023-03-21T04:16:09;94690.34;;;7.03;72.98
24280;BME280;12395;42.808;23.408;2023-03-21T04:18:35;94675.72;;;7.00;71.38
24280;BME280;12395;42.808;23.408;2023-03-21T04:21:05;94674.91;;;6.99;72.06
24280;BME280;12395;42.808;23.408;2023-03-21T04:23:31;94675.13;;;6.98;72.16
24280;BME280;12395;42.808;23.408;2023-03-21T04:25:57;94677.13;;;6.96;73.54
24280;BME280;12395;42.808;23.408;2023-03-21T04:28:22;94684.53;;;6.86;73.93
24280;BME280;12395;42.808;23.408;2023-03-21T04:30:47;94675.69;;;6.93;73.43
24280;BME280;12395;42.808;23.408;2023-03-21T04:33:13;94667.97;;;6.92;73.50
24280;BME280;12395;42.808;23.408;2023-03-21T04:35:39;94669.78;;;6.91;73.51
24280;BME280;12395;42.808;23.408;2023-03-21T04:38:06;94671.50;;;6.99;73.15
24280;BME280;12395;42.808;23.408;2023-03-21T04:40:31;94672.16;;;7.08;72.99
24280;BME280;12395;42.808;23.408;2023-03-21T04:42:57;94674.28;;;7.25;72.47
24280;BME280;12395;42.808;23.408;2023-03-21T04:45:25;94678.25;;;7.42;71.40
24280;BME280;12395;42.808;23.408;2023-03-21T04:47:50;94684.00;;;7.52;71.03
24280;BME280;12395;42.808;23.408;2023-03-21T04:50:16;94681.78;;;7.56;71.61
24280;BME280;12395;42.808;23.408;2023-03-21T04:52:41;94689.78;;;7.35;72.57
24280;BME280;12395;42.808;23.408;2023-03-21T04:55:06;94690.97;;;7.32;72.79
24280;BME280;12395;42.808;23.408;2023-03-21T04:57:34;94687.34;;;7.33;73.62
24280;BME280;12395;42.808;23.408;2023-03-21T04:59:59;94691.78;;;7.33;73.50
24280;BME280;12395;42.808;23.408;2023-03-21T05:02:25;94688.63;;;7.44;73.36
24280;BME280;12395;42.808;23.408;2023-03-21T05:04:50;94689.91;;;7.54;73.75
24280;BME280;12395;42.808;23.408;2023-03-21T05:07:16;94692.34;;;7.56;73.61
24280;BME280;12395;42.808;23.408;2023-03-21T05:09:41;94696.38;;;7.52;73.10
24280;BME280;12395;42.808;23.408;2023-03-21T05:12:06;94692.28;;;7.49;73.26
24280;BME280;12395;42.808;23.408;2023-03-21T05:14:31;94698.84;;;7.60;74.25
24280;BME280;12395;42.808;23.408;2023-03-21T05:16:57;94689.56;;;7.70;73.72
24280;BME280;12395;42.808;23.408;2023-03-21T05:19:24;94687.22;;;7.82;74.38
24280;BME280;12395;42.808;23.408;2023-03-21T05:21:58;94682.34;;;7.86;72.98
24280;BME280;12395;42.808;23.408;2023-03-21T05:24:23;94685.41;;;7.89;73.31
24280;BME280;12395;42.808;23.408;2023-03-21T05:26:48;94673.06;;;7.96;72.90
24280;BME280;12395;42.808;23.408;2023-03-21T05:29:20;94674.28;;;8.00;73.40
24280;BME280;12395;42.808;23.408;2023-03-21T05:31:45;94682.06;;;8.08;73.35
24280;BME280;12395;42.808;23.408;2023-03-21T05:34:11;94672.53;;;8.14;73.95
24280;BME280;12395;42.808;23.408;2023-03-21T05:36:36;94672.97;;;8.24;73.08
24280;BME280;12395;42.808;23.408;2023-03-21T05:39:03;94680.53;;;8.27;72.98
24280;BME280;12395;42.808;23.408;2023-03-21T05:41:28;94673.25;;;8.35;72.87
24280;BME280;12395;42.808;23.408;2023-03-21T05:43:53;94680.56;;;8.46;73.86
24280;BME280;12395;42.808;23.408;2023-03-21T05:46:19;94680.78;;;8.58;75.79
24280;BME280;12395;42.808;23.408;2023-03-21T05:48:44;94692.19;;;8.72;75.78
24280;BME280;12395;42.808;23.408;2023-03-21T05:51:10;94692.84;;;8.87;75.01
24280;BME280;12395;42.808;23.408;2023-03-21T05:53:35;94689.97;;;8.95;75.19
24280;BME280;12395;42.808;23.408;2023-03-21T05:56:00;94689.19;;;9.07;74.69
24280;BME280;12395;42.808;23.408;2023-03-21T05:58:26;94687.56;;;9.19;73.45
24280;BME280;12395;42.808;23.408;2023-03-21T06:00:52;94687.75;;;9.24;70.75
24280;BME280;12395;42.808;23.408;2023-03-21T06:03:18;94683.88;;;9.33;70.60
24280;BME280;12395;42.808;23.408;2023-03-21T06:05:43;94688.72;;;9.50;69.59
24280;BME280;12395;42.808;23.408;2023-03-21T06:08:08;94683.03;;;9.66;69.86
24280;BME280;12395;42.808;23.408;2023-03-21T06:10:33;94691.09;;;9.90;69.47
24280;BME280;12395;42.808;23.408;2023-03-21T06:12:59;94694.72;;;10.09;68.69
24280;BME280;12395;42.808;23.408;2023-03-21T06:15:24;94698.09;;;10.29;67.74
24280;BME280;12395;42.808;23.408;2023-03-21T06:17:50;94705.97;;;10.49;66.81
24280;BME280;12395;42.808;23.408;2023-03-21T06:20:15;94688.16;;;10.69;65.47
24280;BME280;12395;42.808;23.408;2023-03-21T06:22:41;94694.50;;;10.93;63.07
24280;BME280;12395;42.808;23.408;2023-03-21T06:25:06;94683.16;;;11.10;63.40
24280;BME280;12395;42.808;23.408;2023-03-21T06:27:32;94688.94;;;11.25;62.40
24280;BME280;12395;42.808;23.408;2023-03-21T06:29:58;94694.16;;;11.38;61.55
24280;BME280;12395;42.808;23.408;2023-03-21T06:32:23;94694.63;;;11.53;60.06
24280;BME280;12395;42.808;23.408;2023-03-21T06:34:49;94692.84;;;11.72;59.66
24280;BME280;12395;42.808;23.408;2023-03-21T06:37:14;94686.16;;;11.88;58.75
24280;BME280;12395;42.808;23.408;2023-03-21T06:39:39;94688.00;;;12.05;57.85
24280;BME280;12395;42.808;23.408;2023-03-21T06:42:05;94688.88;;;12.17;56.99
24280;BME280;12395;42.808;23.408;2023-03-21T06:44:30;94682.84;;;12.28;56.53
24280;BME280;12395;42.808;23.408;2023-03-21T06:46:56;94694.91;;;12.43;55.77
24280;BME280;12395;42.808;23.408;2023-03-21T06:49:21;94685.97;;;12.55;57.49
24280;BME280;12395;42.808;23.408;2023-03-21T06:51:46;94681.03;;;12.59;57.63
24280;BME280;12395;42.808;23.408;2023-03-21T06:54:11;94685.88;;;12.62;57.09
24280;BME280;12395;42.808;23.408;2023-03-21T06:56:38;94683.03;;;12.75;56.46
24280;BME280;12395;42.808;23.408;2023-03-21T06:59:04;94682.94;;;12.81;56.41
24280;BME280;12395;42.808;23.408;2023-03-21T07:01:30;94695.72;;;12.91;56.11
24280;BME280;12395;42.808;23.408;2023-03-21T07:03:55;94694.34;;;13.00;56.37
24280;BME280;12395;42.808;23.408;2023-03-21T07:06:22;94697.16;;;13.05;55.96
24280;BME280;12395;42.808;23.408;2023-03-21T07:08:50;94698.91;;;13.11;55.31
24280;BME280;12395;42.808;23.408;2023-03-21T07:11:16;94704.41;;;13.28;54.71
24280;BME280;12395;42.808;23.408;2023-03-21T07:13:41;94711.81;;;13.37;54.46
24280;BME280;12395;42.808;23.408;2023-03-21T07:16:06;94710.19;;;13.48;55.21
24280;BME280;12395;42.808;23.408;2023-03-21T07:18:32;94713.34;;;13.56;54.96
24280;BME280;12395;42.808;23.408;2023-03-21T07:20:57;94709.16;;;13.60;55.08
24280;BME280;12395;42.808;23.408;2023-03-21T07:23:23;94710.44;;;13.69;54.68
24280;BME280;12395;42.808;23.408;2023-03-21T07:25:50;94709.31;;;13.77;56.07
24280;BME280;12395;42.808;23.408;2023-03-21T07:28:17;94711.63;;;13.85;56.10
24280;BME280;12395;42.808;23.408;2023-03-21T07:30:43;94712.66;;;13.84;55.73
24280;BME280;12395;42.808;23.408;2023-03-21T07:33:08;94714.97;;;13.80;56.84
24280;BME280;12395;42.808;23.408;2023-03-21T07:35:33;94709.53;;;13.75;56.63
24280;BME280;12395;42.808;23.408;2023-03-21T07:38:00;94715.56;;;13.82;56.81
24280;BME280;12395;42.808;23.408;2023-03-21T07:40:25;94705.94;;;13.93;56.76
24280;BME280;12395;42.808;23.408;2023-03-21T07:42:51;94708.03;;;14.03;56.09
24280;BME280;12395;42.808;23.408;2023-03-21T07:45:16;94709.84;;;14.14;54.98
24280;BME280;12395;42.808;23.408;2023-03-21T07:47:49;94705.09;;;14.27;55.17
24280;BME280;12395;42.808;23.408;2023-03-21T07:50:15;94696.28;;;14.38;55.12
24280;BME280;12395;42.808;23.408;2023-03-21T07:52:40;94714.25;;;14.43;54.69
24280;BME280;12395;42.808;23.408;2023-03-21T07:55:06;94714.34;;;14.48;54.15
24280;BME280;12395;42.808;23.408;2023-03-21T07:57:33;94711.97;;;14.35;55.49
24280;BME280;12395;42.808;23.408;2023-03-21T07:59:58;94713.22;;;14.32;56.13
24280;BME280;12395;42.808;23.408;2023-03-21T08:02:24;94705.13;;;14.39;55.77
24280;BME280;12395;42.808;23.408;2023-03-21T08:04:49;94702.19;;;14.52;55.84
24280;BME280;12395;42.808;23.408;2023-03-21T08:07:15;94705.13;;;14.67;55.42
24280;BME280;12395;42.808;23.408;2023-03-21T08:09:41;94713.41;;;14.82;55.21
24280;BME280;12395;42.808;23.408;2023-03-21T08:12:06;94706.41;;;14.93;53.05
24280;BME280;12395;42.808;23.408;2023-03-21T08:14:35;94707.00;;;14.95;53.18
24280;BME280;12395;42.808;23.408;2023-03-21T08:17:01;94699.34;;;14.98;52.70
24280;BME280;12395;42.808;23.408;2023-03-21T08:19:26;94704.78;;;15.03;53.13
24280;BME280;12395;42.808;23.408;2023-03-21T08:21:51;94711.09;;;15.14;51.96
24280;BME280;12395;42.808;23.408;2023-03-21T08:24:17;94703.44;;;15.34;50.26
24280;BME280;12395;42.808;23.408;2023-03-21T08:26:42;94702.97;;;15.37;48.11
24280;BME280;12395;42.808;23.408;2023-03-21T08:29:09;94708.44;;;15.59;47.96
24280;BME280;12395;42.808;23.408;2023-03-21T08:31:35;94700.06;;;15.88;47.73
24280;BME280;12395;42.808;23.408;2023-03-21T08:34:00;94701.25;;;16.14;45.96
24280;BME280;12395;42.808;23.408;2023-03-21T08:36:25;94694.19;;;16.25;44.13
24280;BME280;12395;42.808;23.408;2023-03-21T08:38:51;94694.84;;;16.37;44.76
24280;BME280;12395;42.808;23.408;2023-03-21T08:41:20;94696.31;;;16.44;44.96
24280;BME280;12395;42.808;23.408;2023-03-21T08:43:48;94692.94;;;16.32;43.86
24280;BME280;12395;42.808;23.408;2023-03-21T08:46:13;94685.97;;;16.31;44.58
24280;BME280;12395;42.808;23.408;2023-03-21T08:48:39;94692.25;;;16.42;44.58
24280;BME280;12395;42.808;23.408;2023-03-21T08:51:04;94692.16;;;16.53;44.30
24280;BME280;12395;42.808;23.408;2023-03-21T08:53:30;94695.81;;;16.47;44.51
24280;BME280;12395;42.808;23.408;2023-03-21T08:55:55;94688.28;;;16.44;44.00
24280;BME280;12395;42.808;23.408;2023-03-21T08:58:20;94692.44;;;16.35;44.21
24280;BME280;12395;42.808;23.408;2023-03-21T09:00:46;94692.44;;;16.35;44.89
24280;BME280;12395;42.808;23.408;2023-03-21T09:03:11;94685.28;;;16.41;44.53
24280;BME280;12395;42.808;23.408;2023-03-21T09:05:37;94693.09;;;16.26;44.82
24280;BME280;12395;42.808;23.408;2023-03-21T09:08:02;94705.03;;;16.18;45.58
24280;BME280;12395;42.808;23.408;2023-03-21T09:10:29;94698.31;;;16.15;46.55
24280;BME280;12395;42.808;23.408;2023-03-21T09:12:55;94692.25;;;16.20;45.65
24280;BME280;12395;42.808;23.408;2023-03-21T09:15:25;94683.53;;;16.30;46.66
24280;BME280;12395;42.808;23.408;2023-03-21T09:17:52;94675.47;;;16.46;45.27
24280;BME280;12395;42.808;23.408;2023-03-21T09:20:18;94673.25;;;16.60;44.76
24280;BME280;12395;42.808;23.408;2023-03-21T09:22:48;94670.16;;;16.68;44.94
24280;BME280;12395;42.808;23.408;2023-03-21T09:25:15;94668.63;;;16.77;45.80
24280;BME280;12395;42.808;23.408;2023-03-21T09:27:40;94675.41;;;16.84;44.67
24280;BME280;12395;42.808;23.408;2023-03-21T09:30:07;94674.88;;;16.82;45.16
24280;BME280;12395;42.808;23.408;2023-03-21T09:32:34;94666.84;;;16.82;45.29
24280;BME280;12395;42.808;23.408;2023-03-21T09:35:00;94666.84;;;16.82;44.68
24280;BME280;12395;42.808;23.408;2023-03-21T09:37:26;94647.59;;;16.85;43.59
24280;BME280;12395;42.808;23.408;2023-03-21T09:39:51;94657.28;;;16.91;44.85
24280;BME280;12395;42.808;23.408;2023-03-21T09:49:59;94641.06;;;17.30;43.20
24280;BME280;12395;42.808;23.408;2023-03-21T09:55:24;94620.31;;;17.47;43.50
24280;BME280;12395;42.808;23.408;2023-03-21T09:58:41;94627.38;;;17.58;43.38
24280;BME280;12395;42.808;23.408;2023-03-21T10:00:41;94622.09;;;17.68;42.95
24280;BME280;12395;42.808;23.408;2023-03-21T10:03:20;94620.53;;;17.77;42.97
24280;BME280;12395;42.808;23.408;2023-03-21T10:05:49;94615.25;;;17.87;43.18
24280;BME280;12395;42.808;23.408;2023-03-21T10:08:20;94612.91;;;17.96;43.33
24280;BME280;12395;42.808;23.408;2023-03-21T10:10:50;94609.13;;;17.92;42.55
24280;BME280;12395;42.808;23.408;2023-03-21T10:13:21;94611.66;;;17.71;43.21
24280;BME280;12395;42.808;23.408;2023-03-21T10:15:48;94618.34;;;17.69;42.73
24280;BME280;12395;42.808;23.408;2023-03-21T10:18:19;94616.97;;;17.66;43.21
24280;BME280;12395;42.808;23.408;2023-03-21T10:20:46;94628.25;;;17.68;43.29
24280;BME280;12395;42.808;23.408;2023-03-21T10:23:13;94624.69;;;17.58;44.49
24280;BME280;12395;42.808;23.408;2023-03-21T10:25:40;94622.88;;;17.63;44.42
24280;BME280;12395;42.808;23.408;2023-03-21T10:28:07;94624.28;;;17.76;44.95
24280;BME280;12395;42.808;23.408;2023-03-21T10:30:40;94615.72;;;17.74;45.30
24280;BME280;12395;42.808;23.408;2023-03-21T10:33:14;94606.44;;;17.92;44.13
24280;BME280;12395;42.808;23.408;2023-03-21T10:35:40;94599.81;;;18.04;43.46
24280;BME280;12395;42.808;23.408;2023-03-21T10:38:09;94602.19;;;18.01;42.46
24280;BME280;12395;42.808;23.408;2023-03-21T10:40:37;94605.50;;;17.71;42.71
24280;BME280;12395;42.808;23.408;2023-03-21T10:45:47;94605.69;;;18.01;41.83
24280;BME280;12395;42.808;23.408;2023-03-21T10:48:12;94610.31;;;18.11;42.60
24280;BME280;12395;42.808;23.408;2023-03-21T10:50:37;94604.69;;;18.17;42.03
24280;BME280;12395;42.808;23.408;2023-03-21T10:53:05;94604.31;;;18.51;41.26
24280;BME280;12395;42.808;23.408;2023-03-21T10:55:39;94604.44;;;18.86;41.45
24280;BME280;12395;42.808;23.408;2023-03-21T10:58:05;94602.28;;;18.88;40.81
24280;BME280;12395;42.808;23.408;2023-03-21T11:00:38;94604.44;;;18.86;40.95
24280;BME280;12395;42.808;23.408;2023-03-21T11:03:05;94593.16;;;18.84;41.19
24280;BME280;12395;42.808;23.408;2023-03-21T11:05:35;94603.88;;;18.84;42.50
24280;BME280;12395;42.808;23.408;2023-03-21T11:08:16;94602.22;;;18.68;41.24
24280;BME280;12395;42.808;23.408;2023-03-21T11:13:23;94589.22;;;18.34;42.86
24280;BME280;12395;42.808;23.408;2023-03-21T11:15:54;94585.19;;;18.32;42.00
24280;BME280;12395;42.808;23.408;2023-03-21T11:18:22;94578.50;;;18.34;41.39
24280;BME280;12395;42.808;23.408;2023-03-21T11:20:48;94583.41;;;18.48;41.01
24280;BME280;12395;42.808;23.408;2023-03-21T11:23:14;94574.84;;;18.66;40.88
24280;BME280;12395;42.808;23.408;2023-03-21T11:25:40;94571.91;;;18.72;41.06
24280;BME280;12395;42.808;23.408;2023-03-21T11:28:17;94574.03;;;18.65;40.89
24280;BME280;12395;42.808;23.408;2023-03-21T11:30:49;94567.09;;;18.79;41.64
24280;BME280;12395;42.808;23.408;2023-03-21T11:33:15;94556.63;;;18.93;40.54
24280;BME280;12395;42.808;23.408;2023-03-21T11:35:42;94554.75;;;18.88;40.09
24280;BME280;12395;42.808;23.408;2023-03-21T11:38:22;94547.00;;;19.07;39.82
24280;BME280;12395;42.808;23.408;2023-03-21T11:40:51;94549.41;;;19.29;38.30
24280;BME280;12395;42.808;23.408;2023-03-21T11:45:55;94539.16;;;19.66;37.42
24280;BME280;12395;42.808;23.408;2023-03-21T11:48:20;94529.47;;;19.75;38.14
24280;BME280;12395;42.808;23.408;2023-03-21T11:50:46;94532.16;;;19.75;38.28
24280;BME280;12395;42.808;23.408;2023-03-21T11:55:44;94525.19;;;19.69;37.88
24280;BME280;12395;42.808;23.408;2023-03-21T12:00:53;94517.41;;;19.57;37.78
24280;BME280;12395;42.808;23.408;2023-03-21T12:05:54;94507.72;;;19.61;37.82
24280;BME280;12395;42.808;23.408;2023-03-21T12:16:24;94501.53;;;19.71;39.72
24280;BME280;12395;42.808;23.408;2023-03-21T12:21:25;94507.44;;;19.78;38.44
24280;BME280;12395;42.808;23.408;2023-03-21T12:24:11;94499.63;;;19.76;38.46
24280;BME280;12395;42.808;23.408;2023-03-21T12:39:47;94486.03;;;20.22;37.68
24280;BME280;12395;42.808;23.408;2023-03-21T12:47:44;94475.72;;;20.34;35.00
24280;BME280;12395;42.808;23.408;2023-03-21T12:50:25;94482.72;;;20.40;36.78
24280;BME280;12395;42.808;23.408;2023-03-21T12:52:56;94476.00;;;20.37;36.36
24280;BME280;12395;42.808;23.408;2023-03-21T12:55:28;94465.53;;;20.31;35.48
24280;BME280;12395;42.808;23.408;2023-03-21T12:57:57;94461.81;;;20.17;35.83
24280;BME280;12395;42.808;23.408;2023-03-21T13:00:27;94462.09;;;20.20;36.42
24280;BME280;12395;42.808;23.408;2023-03-21T13:02:56;94458.84;;;20.28;35.54
24280;BME280;12395;42.808;23.408;2023-03-21T13:05:28;94456.66;;;20.30;36.18
24280;BME280;12395;42.808;23.408;2023-03-21T13:07:59;94452.28;;;20.44;34.99
24280;BME280;12395;42.808;23.408;2023-03-21T13:10:26;94453.03;;;20.55;34.44
24280;BME280;12395;42.808;23.408;2023-03-21T13:13:11;94445.81;;;20.40;34.27
24280;BME280;12395;42.808;23.408;2023-03-21T13:18:48;94440.31;;;20.22;34.96
24280;BME280;12395;42.808;23.408;2023-03-21T13:29:21;94436.16;;;19.90;36.25
24280;BME280;12395;42.808;23.408;2023-03-21T13:31:49;94434.81;;;19.88;35.68
24280;BME280;12395;42.808;23.408;2023-03-21T13:34:14;94431.66;;;19.71;35.36
24280;BME280;12395;42.808;23.408;2023-03-21T13:36:40;94431.13;;;19.64;36.95
24280;BME280;12395;42.808;23.408;2023-03-21T13:39:14;94430.31;;;19.63;36.35
24280;BME280;12395;42.808;23.408;2023-03-21T13:41:41;94427.69;;;19.48;36.94
24280;BME280;12395;42.808;23.408;2023-03-21T13:44:14;94425.03;;;19.33;37.12
24280;BME280;12395;42.808;23.408;2023-03-21T13:46:43;94427.72;;;19.38;37.35
24280;BME280;12395;42.808;23.408;2023-03-21T13:51:51;94425.59;;;19.10;36.81
24280;BME280;12395;42.808;23.408;2023-03-21T13:54:20;94424.28;;;19.02;37.62
24280;BME280;12395;42.808;23.408;2023-03-21T14:01:57;94419.75;;;18.73;37.48
24280;BME280;12395;42.808;23.408;2023-03-21T14:04:27;94424.28;;;18.52;38.05
24280;BME280;12395;42.808;23.408;2023-03-21T14:06:56;94419.97;;;18.26;38.16
24280;BME280;12395;42.808;23.408;2023-03-21T14:09:33;94423.41;;;18.11;38.45
24280;BME280;12395;42.808;23.408;2023-03-21T14:12:00;94413.97;;;17.89;39.05
24280;BME280;12395;42.808;23.408;2023-03-21T14:14:32;94413.72;;;17.85;39.70
24280;BME280;12395;42.808;23.408;2023-03-21T14:16:59;94411.56;;;17.87;40.43
24280;BME280;12395;42.808;23.408;2023-03-21T14:19:27;94409.41;;;17.79;40.86
24280;BME280;12395;42.808;23.408;2023-03-21T14:21:53;94410.41;;;17.63;41.35
24280;BME280;12395;42.808;23.408;2023-03-21T14:24:19;94416.56;;;17.58;41.61
24280;BME280;12395;42.808;23.408;2023-03-21T14:26:46;94407.97;;;17.56;42.34
24280;BME280;12395;42.808;23.408;2023-03-21T14:29:25;94409.28;;;17.49;42.38
24280;BME280;12395;42.808;23.408;2023-03-21T14:31:54;94404.66;;;17.39;42.92
24280;BME280;12395;42.808;23.408;2023-03-21T14:34:20;94405.47;;;17.40;43.34
24280;BME280;12395;42.808;23.408;2023-03-21T14:36:46;94404.38;;;17.41;43.94